sensor_id;sensor_type;location;lat;lon;timestamp;pressure;altitude;pressure_sealevel;temperature
66403;BMP180;53212;52.112;5.144;2023-02-03T00:01:13;102405.20;;;8.90
66403;BMP180;53212;52.112;5.144;2023-02-03T00:03:39;102409.40;;;8.90
66403;BMP180;53212;52.112;5.144;2023-02-03T00:06:05;102410.80;;;9.00
66403;BMP180;53212;52.112;5.144;2023-02-03T00:08:30;102420.60;;;9.00
66403;BMP180;53212;52.112;5.144;2023-02-03T00:10:57;102423.40;;;9.00
66403;BMP180;53212;52.112;5.144;2023-02-03T00:13:23;102418.60;;;9.00
66403;BMP180;53212;52.112;5.144;2023-02-03T00:15:51;102422.80;;;9.00
66403;BMP180;53212;52.112;5.144;2023-02-03T00:18:16;102421.60;;;9.00
66403;BMP180;53212;52.112;5.144;2023-02-03T00:20:42;102415.40;;;9.00
66403;BMP180;53212;52.112;5.144;2023-02-03T00:23:09;102418.80;;;9.00
66403;BMP180;53212;52.112;5.144;2023-02-03T00:25:36;102421.80;;;9.00
66403;BMP180;53212;52.112;5.144;2023-02-03T00:28:03;102424.80;;;9.00
66403;BMP180;53212;52.112;5.144;2023-02-03T00:30:29;102427.60;;;9.00
66403;BMP180;53212;52.112;5.144;2023-02-03T00:32:55;102427.60;;;9.00
66403;BMP180;53212;52.112;5.144;2023-02-03T00:35:21;102423.20;;;9.00
66403;BMP180;53212;52.112;5.144;2023-02-03T00:37:51;102433.60;;;9.00
66403;BMP180;53212;52.112;5.144;2023-02-03T00:40:22;102432.00;;;9.00
66403;BMP180;53212;52.112;5.144;2023-02-03T00:42:48;102425.00;;;9.00
66403;BMP180;53212;52.112;5.144;2023-02-03T00:45:13;102429.60;;;9.00
66403;BMP180;53212;52.112;5.144;2023-02-03T00:47:40;102430.20;;;9.00
66403;BMP180;53212;52.112;5.144;2023-02-03T00:50:06;102423.60;;;8.96
66403;BMP180;53212;52.112;5.144;2023-02-03T00:52:32;102428.60;;;8.92
66403;BMP180;53212;52.112;5.144;2023-02-03T00:54:58;102431.20;;;8.96
66403;BMP180;53212;52.112;5.144;2023-02-03T00:57:23;102414.00;;;8.98
66403;BMP180;53212;52.112;5.144;2023-02-03T00:59:48;102409.80;;;8.92
66403;BMP180;53212;52.112;5.144;2023-02-03T01:02:14;102407.20;;;8.90
66403;BMP180;53212;52.112;5.144;2023-02-03T01:04:42;102416.80;;;8.90
66403;BMP180;53212;52.112;5.144;2023-02-03T01:07:08;102415.00;;;8.90
66403;BMP180;53212;52.112;5.144;2023-02-03T01:09:35;102421.60;;;8.90
66403;BMP180;53212;52.112;5.144;2023-02-03T01:12:02;102421.20;;;8.90
66403;BMP180;53212;52.112;5.144;2023-02-03T01:14:28;102404.80;;;8.90
66403;BMP180;53212;52.112;5.144;2023-02-03T01:16:53;102407.00;;;8.90
66403;BMP180;53212;52.112;5.144;2023-02-03T01:19:19;102412.20;;;8.90
66403;BMP180;53212;52.112;5.144;2023-02-03T01:21:44;102402.00;;;8.90
66403;BMP180;53212;52.112;5.144;2023-02-03T01:24:10;102403.40;;;8.90
66403;BMP180;53212;52.112;5.144;2023-02-03T01:26:36;102399.60;;;8.90
66403;BMP180;53212;52.112;5.144;2023-02-03T01:29:02;102407.00;;;8.90
66403;BMP180;53212;52.112;5.144;2023-02-03T01:31:30;102399.00;;;8.90
66403;BMP180;53212;52.112;5.144;2023-02-03T01:33:56;102386.20;;;8.90
66403;BMP180;53212;52.112;5.144;2023-02-03T01:36:24;102377.40;;;8.90
66403;BMP180;53212;52.112;5.144;2023-02-03T01:38:51;102369.80;;;8.90
66403;BMP180;53212;52.112;5.144;2023-02-03T01:41:22;102372.80;;;8.90
66403;BMP180;53212;52.112;5.144;2023-02-03T01:43:51;102377.00;;;8.90
66403;BMP180;53212;52.112;5.144;2023-02-03T01:46:42;102380.80;;;8.90
66403;BMP180;53212;52.112;5.144;2023-02-03T01:49:31;102373.80;;;8.86
66403;BMP180;53212;52.112;5.144;2023-02-03T01:51:58;102385.20;;;8.82
66403;BMP180;53212;52.112;5.144;2023-02-03T01:54:29;102389.40;;;8.82
66403;BMP180;53212;52.112;5.144;2023-02-03T01:57:03;102390.80;;;8.90
66403;BMP180;53212;52.112;5.144;2023-02-03T01:59:31;102385.60;;;8.90
66403;BMP180;53212;52.112;5.144;2023-02-03T02:01:58;102371.00;;;8.90
66403;BMP180;53212;52.112;5.144;2023-02-03T02:04:31;102354.20;;;8.90
66403;BMP180;53212;52.112;5.144;2023-02-03T02:06:58;102344.80;;;8.88
66403;BMP180;53212;52.112;5.144;2023-02-03T02:09:25;102347.00;;;8.88
66403;BMP180;53212;52.112;5.144;2023-02-03T02:11:51;102338.00;;;8.88
66403;BMP180;53212;52.112;5.144;2023-02-03T02:14:16;102342.60;;;8.84
66403;BMP180;53212;52.112;5.144;2023-02-03T02:16:52;102343.60;;;8.88
66403;BMP180;53212;52.112;5.144;2023-02-03T02:19:52;102340.80;;;8.90
66403;BMP180;53212;52.112;5.144;2023-02-03T02:40:32;102368.20;;;9.10
66403;BMP180;53212;52.112;5.144;2023-02-03T02:43:19;102368.20;;;9.10
66403;BMP180;53212;52.112;5.144;2023-02-03T02:45:49;102358.40;;;9.20
66403;BMP180;53212;52.112;5.144;2023-02-03T02:48:56;102353.60;;;9.20
66403;BMP180;53212;52.112;5.144;2023-02-03T02:51:23;102350.20;;;9.20
66403;BMP180;53212;52.112;5.144;2023-02-03T02:53:57;102350.20;;;9.20
66403;BMP180;53212;52.112;5.144;2023-02-03T02:56:24;102337.60;;;9.30
66403;BMP180;53212;52.112;5.144;2023-02-03T02:58:52;102344.40;;;9.30
66403;BMP180;53212;52.112;5.144;2023-02-03T03:01:19;102340.20;;;9.30
66403;BMP180;53212;52.112;5.144;2023-02-03T03:03:44;102328.40;;;9.40
66403;BMP180;53212;52.112;5.144;2023-02-03T03:06:25;102331.20;;;9.40
66403;BMP180;53212;52.112;5.144;2023-02-03T03:09:02;102329.40;;;9.40
66403;BMP180;53212;52.112;5.144;2023-02-03T03:11:38;102326.20;;;9.40
66403;BMP180;53212;52.112;5.144;2023-02-03T03:14:05;102332.40;;;9.40
66403;BMP180;53212;52.112;5.144;2023-02-03T03:16:36;102335.80;;;9.40
66403;BMP180;53212;52.112;5.144;2023-02-03T03:19:11;102327.00;;;9.40
66403;BMP180;53212;52.112;5.144;2023-02-03T03:21:42;102319.60;;;9.38
66403;BMP180;53212;52.112;5.144;2023-02-03T03:24:11;102333.80;;;9.30
66403;BMP180;53212;52.112;5.144;2023-02-03T03:26:46;102333.40;;;9.30
66403;BMP180;53212;52.112;5.144;2023-02-03T03:29:28;102331.20;;;9.30
66403;BMP180;53212;52.112;5.144;2023-02-03T03:31:54;102322.20;;;9.30
66403;BMP180;53212;52.112;5.144;2023-02-03T03:34:20;102333.20;;;9.28
66403;BMP180;53212;52.112;5.144;2023-02-03T03:37:23;102323.40;;;9.22
66403;BMP180;53212;52.112;5.144;2023-02-03T03:40:05;102330.60;;;9.30
66403;BMP180;53212;52.112;5.144;2023-02-03T03:42:39;102335.40;;;9.30
66403;BMP180;53212;52.112;5.144;2023-02-03T03:45:31;102334.60;;;9.30
66403;BMP180;53212;52.112;5.144;2023-02-03T03:48:15;102339.80;;;9.30
66403;BMP180;53212;52.112;5.144;2023-02-03T03:51:35;102345.20;;;9.30
66403;BMP180;53212;52.112;5.144;2023-02-03T03:54:07;102348.40;;;9.40
66403;BMP180;53212;52.112;5.144;2023-02-03T03:56:45;102344.80;;;9.40
66403;BMP180;53212;52.112;5.144;2023-02-03T03:59:12;102367.40;;;9.50
66403;BMP180;53212;52.112;5.144;2023-02-03T04:01:40;102365.60;;;9.50
66403;BMP180;53212;52.112;5.144;2023-02-03T04:04:09;102365.00;;;9.50
66403;BMP180;53212;52.112;5.144;2023-02-03T04:06:37;102356.60;;;9.50
66403;BMP180;53212;52.112;5.144;2023-02-03T04:09:03;102361.60;;;9.52
66403;BMP180;53212;52.112;5.144;2023-02-03T04:11:30;102363.00;;;9.60
66403;BMP180;53212;52.112;5.144;2023-02-03T04:14:14;102368.20;;;9.60
66403;BMP180;53212;52.112;5.144;2023-02-03T04:16:39;102354.00;;;9.60
66403;BMP180;53212;52.112;5.144;2023-02-03T04:19:05;102367.00;;;9.60
66403;BMP180;53212;52.112;5.144;2023-02-03T04:21:30;102373.20;;;9.66
66403;BMP180;53212;52.112;5.144;2023-02-03T04:23:56;102368.60;;;9.64
66403;BMP180;53212;52.112;5.144;2023-02-03T04:26:22;102359.40;;;9.68
66403;BMP180;53212;52.112;5.144;2023-02-03T04:28:47;102356.20;;;9.70
66403;BMP180;53212;52.112;5.144;2023-02-03T04:31:12;102358.20;;;9.70
66403;BMP180;53212;52.112;5.144;2023-02-03T04:33:38;102348.60;;;9.70
66403;BMP180;53212;52.112;5.144;2023-02-03T04:36:04;102353.20;;;9.70
66403;BMP180;53212;52.112;5.144;2023-02-03T04:38:29;102352.80;;;9.70
66403;BMP180;53212;52.112;5.144;2023-02-03T04:40:55;102356.20;;;9.66
66403;BMP180;53212;52.112;5.144;2023-02-03T04:43:20;102364.80;;;9.64
66403;BMP180;53212;52.112;5.144;2023-02-03T04:45:45;102382.00;;;9.64
66403;BMP180;53212;52.112;5.144;2023-02-03T04:48:11;102372.20;;;9.64
66403;BMP180;53212;52.112;5.144;2023-02-03T04:50:36;102362.20;;;9.64
66403;BMP180;53212;52.112;5.144;2023-02-03T04:53:02;102365.20;;;9.68
66403;BMP180;53212;52.112;5.144;2023-02-03T04:55:27;102358.80;;;9.70
66403;BMP180;53212;52.112;5.144;2023-02-03T04:57:58;102352.60;;;9.60
66403;BMP180;53212;52.112;5.144;2023-02-03T05:00:24;102355.60;;;9.60
66403;BMP180;53212;52.112;5.144;2023-02-03T05:02:50;102353.80;;;9.60
66403;BMP180;53212;52.112;5.144;2023-02-03T05:05:16;102357.20;;;9.60
66403;BMP180;53212;52.112;5.144;2023-02-03T05:07:41;102353.40;;;9.60
66403;BMP180;53212;52.112;5.144;2023-02-03T05:10:07;102354.80;;;9.60
66403;BMP180;53212;52.112;5.144;2023-02-03T05:12:33;102340.00;;;9.60
66403;BMP180;53212;52.112;5.144;2023-02-03T05:14:58;102342.20;;;9.60
66403;BMP180;53212;52.112;5.144;2023-02-03T05:17:23;102349.00;;;9.60
66403;BMP180;53212;52.112;5.144;2023-02-03T05:19:49;102337.00;;;9.60
66403;BMP180;53212;52.112;5.144;2023-02-03T05:22:15;102352.20;;;9.60
66403;BMP180;53212;52.112;5.144;2023-02-03T05:24:40;102356.60;;;9.60
66403;BMP180;53212;52.112;5.144;2023-02-03T05:27:06;102363.80;;;9.60
66403;BMP180;53212;52.112;5.144;2023-02-03T05:29:31;102370.80;;;9.60
66403;BMP180;53212;52.112;5.144;2023-02-03T05:31:57;102359.20;;;9.60
66403;BMP180;53212;52.112;5.144;2023-02-03T05:34:22;102355.00;;;9.60
66403;BMP180;53212;52.112;5.144;2023-02-03T05:36:47;102356.40;;;9.60
66403;BMP180;53212;52.112;5.144;2023-02-03T05:39:13;102357.40;;;9.58
66403;BMP180;53212;52.112;5.144;2023-02-03T05:41:38;102359.20;;;9.60
66403;BMP180;53212;52.112;5.144;2023-02-03T05:44:20;102355.20;;;9.54
66403;BMP180;53212;52.112;5.144;2023-02-03T05:46:47;102361.60;;;9.50
66403;BMP180;53212;52.112;5.144;2023-02-03T05:49:13;102358.60;;;9.52
66403;BMP180;53212;52.112;5.144;2023-02-03T05:51:39;102360.60;;;9.50
66403;BMP180;53212;52.112;5.144;2023-02-03T05:54:06;102360.80;;;9.60
66403;BMP180;53212;52.112;5.144;2023-02-03T05:56:32;102368.40;;;9.56
66403;BMP180;53212;52.112;5.144;2023-02-03T05:58:57;102359.40;;;9.52
66403;BMP180;53212;52.112;5.144;2023-02-03T06:01:23;102359.40;;;9.52
66403;BMP180;53212;52.112;5.144;2023-02-03T06:03:49;102358.80;;;9.52
66403;BMP180;53212;52.112;5.144;2023-02-03T06:06:15;102337.40;;;9.50
66403;BMP180;53212;52.112;5.144;2023-02-03T06:08:41;102350.20;;;9.50
66403;BMP180;53212;52.112;5.144;2023-02-03T06:11:06;102350.40;;;9.50
66403;BMP180;53212;52.112;5.144;2023-02-03T06:13:32;102356.20;;;9.50
66403;BMP180;53212;52.112;5.144;2023-02-03T06:15:57;102360.80;;;9.50
66403;BMP180;53212;52.112;5.144;2023-02-03T06:18:23;102346.80;;;9.50
66403;BMP180;53212;52.112;5.144;2023-02-03T06:20:49;102345.00;;;9.50
66403;BMP180;53212;52.112;5.144;2023-02-03T06:23:15;102348.40;;;9.50
66403;BMP180;53212;52.112;5.144;2023-02-03T06:25:42;102349.80;;;9.50
66403;BMP180;53212;52.112;5.144;2023-02-03T06:28:07;102355.00;;;9.50
66403;BMP180;53212;52.112;5.144;2023-02-03T06:30:33;102361.80;;;9.50
66403;BMP180;53212;52.112;5.144;2023-02-03T06:32:58;102363.20;;;9.42
66403;BMP180;53212;52.112;5.144;2023-02-03T06:35:24;102375.20;;;9.40
66403;BMP180;53212;52.112;5.144;2023-02-03T06:37:49;102378.60;;;9.40
66403;BMP180;53212;52.112;5.144;2023-02-03T06:40:15;102370.60;;;9.40
66403;BMP180;53212;52.112;5.144;2023-02-03T06:42:44;102353.60;;;9.40
66403;BMP180;53212;52.112;5.144;2023-02-03T06:45:11;102380.60;;;9.40
66403;BMP180;53212;52.112;5.144;2023-02-03T06:47:42;102359.40;;;9.40
66403;BMP180;53212;52.112;5.144;2023-02-03T06:50:11;102354.20;;;9.40
66403;BMP180;53212;52.112;5.144;2023-02-03T06:52:37;102356.40;;;9.38
66403;BMP180;53212;52.112;5.144;2023-02-03T06:55:04;102375.40;;;9.30
66403;BMP180;53212;52.112;5.144;2023-02-03T06:57:30;102375.60;;;9.34
66403;BMP180;53212;52.112;5.144;2023-02-03T06:59:56;102377.40;;;9.40
66403;BMP180;53212;52.112;5.144;2023-02-03T07:02:21;102373.80;;;9.40
66403;BMP180;53212;52.112;5.144;2023-02-03T07:04:47;102388.60;;;9.40
66403;BMP180;53212;52.112;5.144;2023-02-03T07:07:12;102410.40;;;9.40
66403;BMP180;53212;52.112;5.144;2023-02-03T07:09:39;102398.60;;;9.40
66403;BMP180;53212;52.112;5.144;2023-02-03T07:12:06;102398.80;;;9.40
66403;BMP180;53212;52.112;5.144;2023-02-03T07:14:31;102398.40;;;9.40
66403;BMP180;53212;52.112;5.144;2023-02-03T07:16:58;102403.60;;;9.40
66403;BMP180;53212;52.112;5.144;2023-02-03T07:19:23;102405.60;;;9.40
66403;BMP180;53212;52.112;5.144;2023-02-03T07:21:49;102405.60;;;9.40
66403;BMP180;53212;52.112;5.144;2023-02-03T07:24:14;102402.40;;;9.40
66403;BMP180;53212;52.112;5.144;2023-02-03T07:26:40;102404.60;;;9.40
66403;BMP180;53212;52.112;5.144;2023-02-03T07:29:05;102408.40;;;9.40
66403;BMP180;53212;52.112;5.144;2023-02-03T07:31:31;102408.00;;;9.40
66403;BMP180;53212;52.112;5.144;2023-02-03T07:33:56;102412.40;;;9.40
66403;BMP180;53212;52.112;5.144;2023-02-03T07:36:22;102414.00;;;9.40
66403;BMP180;53212;52.112;5.144;2023-02-03T07:38:49;102407.40;;;9.40
66403;BMP180;53212;52.112;5.144;2023-02-03T07:41:15;102410.00;;;9.40
66403;BMP180;53212;52.112;5.144;2023-02-03T07:43:40;102415.60;;;9.40
66403;BMP180;53212;52.112;5.144;2023-02-03T07:46:05;102420.20;;;9.40
66403;BMP180;53212;52.112;5.144;2023-02-03T07:48:31;102407.60;;;9.40
66403;BMP180;53212;52.112;5.144;2023-02-03T07:50:56;102415.40;;;9.40
66403;BMP180;53212;52.112;5.144;2023-02-03T07:53:22;102418.40;;;9.40
66403;BMP180;53212;52.112;5.144;2023-02-03T07:55:47;102412.80;;;9.40
66403;BMP180;53212;52.112;5.144;2023-02-03T07:58:13;102414.80;;;9.40
66403;BMP180;53212;52.112;5.144;2023-02-03T08:00:39;102426.40;;;9.40
66403;BMP180;53212;52.112;5.144;2023-02-03T08:03:04;102426.20;;;9.40
66403;BMP180;53212;52.112;5.144;2023-02-03T08:05:30;102426.80;;;9.40
66403;BMP180;53212;52.112;5.144;2023-02-03T08:07:57;102424.20;;;9.50
66403;BMP180;53212;52.112;5.144;2023-02-03T08:10:23;102421.60;;;9.50
66403;BMP180;53212;52.112;5.144;2023-02-03T08:12:52;102417.60;;;9.50
66403;BMP180;53212;52.112;5.144;2023-02-03T08:15:18;102430.80;;;9.50
66403;BMP180;53212;52.112;5.144;2023-02-03T08:17:44;102447.60;;;9.50
66403;BMP180;53212;52.112;5.144;2023-02-03T08:20:11;102453.60;;;9.50
66403;BMP180;53212;52.112;5.144;2023-02-03T08:22:37;102451.00;;;9.52
66403;BMP180;53212;52.112;5.144;2023-02-03T08:25:03;102465.20;;;9.50
66403;BMP180;53212;52.112;5.144;2023-02-03T08:27:30;102460.60;;;9.60
66403;BMP180;53212;52.112;5.144;2023-02-03T08:29:56;102453.20;;;9.60
66403;BMP180;53212;52.112;5.144;2023-02-03T08:32:22;102447.00;;;9.60
66403;BMP180;53212;52.112;5.144;2023-02-03T08:34:49;102453.80;;;9.66
66403;BMP180;53212;52.112;5.144;2023-02-03T08:37:20;102461.20;;;9.70
66403;BMP180;53212;52.112;5.144;2023-02-03T08:39:46;102466.20;;;9.70
66403;BMP180;53212;52.112;5.144;2023-02-03T08:42:12;102473.60;;;9.70
66403;BMP180;53212;52.112;5.144;2023-02-03T08:44:37;102468.60;;;9.80
66403;BMP180;53212;52.112;5.144;2023-02-03T08:47:04;102469.60;;;9.80
66403;BMP180;53212;52.112;5.144;2023-02-03T08:49:30;102475.40;;;9.80
66403;BMP180;53212;52.112;5.144;2023-02-03T08:51:57;102470.20;;;9.86
66403;BMP180;53212;52.112;5.144;2023-02-03T08:54:23;102477.40;;;9.90
66403;BMP180;53212;52.112;5.144;2023-02-03T08:56:50;102480.00;;;9.90
66403;BMP180;53212;52.112;5.144;2023-02-03T08:59:16;102474.20;;;9.92
66403;BMP180;53212;52.112;5.144;2023-02-03T09:01:43;102472.40;;;10.00
66403;BMP180;53212;52.112;5.144;2023-02-03T09:04:11;102486.80;;;10.00
66403;BMP180;53212;52.112;5.144;2023-02-03T09:06:37;102498.40;;;10.08
66403;BMP180;53212;52.112;5.144;2023-02-03T09:09:03;102483.80;;;10.10
66403;BMP180;53212;52.112;5.144;2023-02-03T09:11:29;102501.00;;;10.20
66403;BMP180;53212;52.112;5.144;2023-02-03T09:13:54;102505.60;;;10.20
66403;BMP180;53212;52.112;5.144;2023-02-03T09:16:23;102514.00;;;10.20
66403;BMP180;53212;52.112;5.144;2023-02-03T09:18:48;102495.00;;;10.28
66403;BMP180;53212;52.112;5.144;2023-02-03T09:21:15;102508.20;;;10.30
66403;BMP180;53212;52.112;5.144;2023-02-03T09:23:42;102517.20;;;10.30
66403;BMP180;53212;52.112;5.144;2023-02-03T09:26:11;102511.60;;;10.34
66403;BMP180;53212;52.112;5.144;2023-02-03T09:28:38;102512.00;;;10.40
66403;BMP180;53212;52.112;5.144;2023-02-03T09:31:07;102512.40;;;10.50
66403;BMP180;53212;52.112;5.144;2023-02-03T09:33:34;102510.00;;;10.50
66403;BMP180;53212;52.112;5.144;2023-02-03T09:35:59;102503.40;;;10.50
66403;BMP180;53212;52.112;5.144;2023-02-03T09:38:26;102490.60;;;10.50
66403;BMP180;53212;52.112;5.144;2023-02-03T09:41:02;102505.00;;;10.52
66403;BMP180;53212;52.112;5.144;2023-02-03T09:43:40;102512.00;;;10.60
66403;BMP180;53212;52.112;5.144;2023-02-03T09:46:20;102511.60;;;10.60
66403;BMP180;53212;52.112;5.144;2023-02-03T09:48:57;102522.20;;;10.60
66403;BMP180;53212;52.112;5.144;2023-02-03T09:51:29;102530.40;;;10.60
66403;BMP180;53212;52.112;5.144;2023-02-03T09:54:03;102534.00;;;10.60
66403;BMP180;53212;52.112;5.144;2023-02-03T09:56:35;102538.00;;;10.60
66403;BMP180;53212;52.112;5.144;2023-02-03T09:59:02;102535.20;;;10.60
66403;BMP180;53212;52.112;5.144;2023-02-03T10:01:44;102526.00;;;10.60
66403;BMP180;53212;52.112;5.144;2023-02-03T10:04:51;102533.20;;;10.60
66403;BMP180;53212;52.112;5.144;2023-02-03T10:07:38;102530.20;;;10.68
66403;BMP180;53212;52.112;5.144;2023-02-03T10:10:40;102554.60;;;10.70
66403;BMP180;53212;52.112;5.144;2023-02-03T10:18:42;102548.00;;;10.60
66403;BMP180;53212;52.112;5.144;2023-02-03T10:21:37;102550.20;;;10.60
66403;BMP180;53212;52.112;5.144;2023-02-03T10:24:03;102557.40;;;10.60
66403;BMP180;53212;52.112;5.144;2023-02-03T10:26:30;102550.80;;;10.60
66403;BMP180;53212;52.112;5.144;2023-02-03T10:29:02;102554.00;;;10.60
66403;BMP180;53212;52.112;5.144;2023-02-03T10:31:35;102560.20;;;10.70
66403;BMP180;53212;52.112;5.144;2023-02-03T10:34:12;102556.00;;;10.70
66403;BMP180;53212;52.112;5.144;2023-02-03T10:37:02;102552.40;;;10.70
66403;BMP180;53212;52.112;5.144;2023-02-03T10:39:46;102571.20;;;10.70
66403;BMP180;53212;52.112;5.144;2023-02-03T10:42:13;102573.00;;;10.70
66403;BMP180;53212;52.112;5.144;2023-02-03T10:44:43;102574.40;;;10.70
66403;BMP180;53212;52.112;5.144;2023-02-03T10:47:37;102570.60;;;10.80
66403;BMP180;53212;52.112;5.144;2023-02-03T10:50:16;102591.20;;;10.80
66403;BMP180;53212;52.112;5.144;2023-02-03T10:52:42;102587.40;;;10.82
66403;BMP180;53212;52.112;5.144;2023-02-03T10:55:29;102585.20;;;10.82
66403;BMP180;53212;52.112;5.144;2023-02-03T10:57:56;102591.80;;;10.84
66403;BMP180;53212;52.112;5.144;2023-02-03T11:00:29;102586.60;;;10.88
66403;BMP180;53212;52.112;5.144;2023-02-03T11:03:21;102583.00;;;10.90
66403;BMP180;53212;52.112;5.144;2023-02-03T11:06:07;102578.00;;;10.94
66403;BMP180;53212;52.112;5.144;2023-02-03T11:08:37;102595.20;;;11.00
66403;BMP180;53212;52.112;5.144;2023-02-03T11:11:12;102588.20;;;11.00
66403;BMP180;53212;52.112;5.144;2023-02-03T11:13:38;102600.80;;;11.10
66403;BMP180;53212;52.112;5.144;2023-02-03T11:16:10;102607.60;;;11.10
66403;BMP180;53212;52.112;5.144;2023-02-03T11:18:51;102589.20;;;11.02
66403;BMP180;53212;52.112;5.144;2023-02-03T11:26:28;102588.80;;;10.90
66403;BMP180;53212;52.112;5.144;2023-02-03T11:28:57;102581.60;;;10.90
66403;BMP180;53212;52.112;5.144;2023-02-03T11:31:31;102582.80;;;10.92
66403;BMP180;53212;52.112;5.144;2023-02-03T11:34:03;102601.40;;;11.00
66403;BMP180;53212;52.112;5.144;2023-02-03T11:36:32;102576.20;;;11.00
66403;BMP180;53212;52.112;5.144;2023-02-03T11:39:16;102596.40;;;11.10
66403;BMP180;53212;52.112;5.144;2023-02-03T11:41:42;102605.80;;;11.20
66403;BMP180;53212;52.112;5.144;2023-02-03T11:44:14;102591.80;;;11.10
66403;BMP180;53212;52.112;5.144;2023-02-03T11:46:41;102596.00;;;11.10
66403;BMP180;53212;52.112;5.144;2023-02-03T12:04:04;102587.40;;;10.80
66403;BMP180;53212;52.112;5.144;2023-02-03T12:09:41;102602.00;;;10.80
66403;BMP180;53212;52.112;5.144;2023-02-03T12:21:06;102594.80;;;10.70
66403;BMP180;53212;52.112;5.144;2023-02-03T12:29:10;102618.00;;;10.50
66403;BMP180;53212;52.112;5.144;2023-02-03T12:31:59;102592.40;;;10.40
66403;BMP180;53212;52.112;5.144;2023-02-03T12:34:41;102623.20;;;10.30
66403;BMP180;53212;52.112;5.144;2023-02-03T12:37:18;102613.40;;;10.30
66403;BMP180;53212;52.112;5.144;2023-02-03T12:39:52;102626.80;;;10.30
66403;BMP180;53212;52.112;5.144;2023-02-03T12:42:27;102647.80;;;10.30
66403;BMP180;53212;52.112;5.144;2023-02-03T12:45:33;102637.80;;;10.28
66403;BMP180;53212;52.112;5.144;2023-02-03T12:48:11;102634.20;;;10.20
66403;BMP180;53212;52.112;5.144;2023-02-03T12:50:55;102645.00;;;10.10
66403;BMP180;53212;52.112;5.144;2023-02-03T12:53:35;102666.80;;;9.98
66403;BMP180;53212;52.112;5.144;2023-02-03T12:56:12;102661.20;;;9.90
66403;BMP180;53212;52.112;5.144;2023-02-03T12:59:02;102664.00;;;9.80
66403;BMP180;53212;52.112;5.144;2023-02-03T13:01:49;102657.20;;;9.70
66403;BMP180;53212;52.112;5.144;2023-02-03T13:12:40;102687.60;;;9.60
66403;BMP180;53212;52.112;5.144;2023-02-03T13:15:38;102679.00;;;9.60
66403;BMP180;53212;52.112;5.144;2023-02-03T13:18:34;102681.20;;;9.60
66403;BMP180;53212;52.112;5.144;2023-02-03T13:21:01;102690.40;;;9.70
66403;BMP180;53212;52.112;5.144;2023-02-03T13:23:26;102690.20;;;9.70
66403;BMP180;53212;52.112;5.144;2023-02-03T13:31:56;102705.40;;;9.86
66403;BMP180;53212;52.112;5.144;2023-02-03T13:43:33;102690.00;;;10.00
66403;BMP180;53212;52.112;5.144;2023-02-03T13:45:59;102695.40;;;10.00
66403;BMP180;53212;52.112;5.144;2023-02-03T13:48:31;102690.60;;;10.00
66403;BMP180;53212;52.112;5.144;2023-02-03T13:51:24;102685.00;;;10.00
66403;BMP180;53212;52.112;5.144;2023-02-03T13:53:51;102685.20;;;10.00
66403;BMP180;53212;52.112;5.144;2023-02-03T13:56:25;102683.80;;;10.08
66403;BMP180;53212;52.112;5.144;2023-02-03T14:01:42;102680.20;;;10.00
66403;BMP180;53212;52.112;5.144;2023-02-03T14:20:01;102703.60;;;10.00
66403;BMP180;53212;52.112;5.144;2023-02-03T14:22:27;102707.40;;;10.00
66403;BMP180;53212;52.112;5.144;2023-02-03T14:24:54;102710.20;;;10.00
66403;BMP180;53212;52.112;5.144;2023-02-03T14:27:27;102709.40;;;10.08
66403;BMP180;53212;52.112;5.144;2023-02-03T14:30:13;102704.20;;;10.10
66403;BMP180;53212;52.112;5.144;2023-02-03T14:32:58;102713.60;;;10.10
66403;BMP180;53212;52.112;5.144;2023-02-03T14:35:32;102734.40;;;10.20
66403;BMP180;53212;52.112;5.144;2023-02-03T14:38:13;102725.00;;;10.18
66403;BMP180;53212;52.112;5.144;2023-02-03T14:41:05;102727.00;;;10.10
66403;BMP180;53212;52.112;5.144;2023-02-03T14:44:02;102729.80;;;10.10
66403;BMP180;53212;52.112;5.144;2023-02-03T14:58:45;102732.60;;;10.10
66403;BMP180;53212;52.112;5.144;2023-02-03T15:04:22;102737.80;;;10.00
66403;BMP180;53212;52.112;5.144;2023-02-03T15:06:51;102740.60;;;9.90
66403;BMP180;53212;52.112;5.144;2023-02-03T15:09:42;102742.60;;;9.90
66403;BMP180;53212;52.112;5.144;2023-02-03T15:12:25;102743.80;;;9.90
66403;BMP180;53212;52.112;5.144;2023-02-03T15:14:52;102751.60;;;9.90
66403;BMP180;53212;52.112;5.144;2023-02-03T15:17:25;102749.40;;;9.82
66403;BMP180;53212;52.112;5.144;2023-02-03T15:19:51;102754.20;;;9.80
66403;BMP180;53212;52.112;5.144;2023-02-03T15:22:25;102743.80;;;9.80
66403;BMP180;53212;52.112;5.144;2023-02-03T15:24:59;102751.80;;;9.72
66403;BMP180;53212;52.112;5.144;2023-02-03T15:27:29;102761.20;;;9.70
66403;BMP180;53212;52.112;5.144;2023-02-03T15:29:55;102757.40;;;9.70
66403;BMP180;53212;52.112;5.144;2023-02-03T15:32:24;102760.80;;;9.70
66403;BMP180;53212;52.112;5.144;2023-02-03T15:34:52;102754.40;;;9.70
66403;BMP180;53212;52.112;5.144;2023-02-03T15:37:45;102743.40;;;9.60
66403;BMP180;53212;52.112;5.144;2023-02-03T15:40:22;102753.60;;;9.60
66403;BMP180;53212;52.112;5.144;2023-02-03T15:42:54;102745.40;;;9.54
66403;BMP180;53212;52.112;5.144;2023-02-03T15:45:39;102748.80;;;9.50
66403;BMP180;53212;52.112;5.144;2023-02-03T15:50:53;102767.20;;;9.40
66403;BMP180;53212;52.112;5.144;2023-02-03T15:53:34;102766.20;;;9.40
66403;BMP180;53212;52.112;5.144;2023-02-03T15:56:03;102776.20;;;9.40
66403;BMP180;53212;52.112;5.144;2023-02-03T15:58:36;102759.00;;;9.40
66403;BMP180;53212;52.112;5.144;2023-02-03T16:01:09;102769.80;;;9.30
66403;BMP180;53212;52.112;5.144;2023-02-03T16:06:34;102766.40;;;9.30
66403;BMP180;53212;52.112;5.144;2023-02-03T16:09:06;102779.20;;;9.20
66403;BMP180;53212;52.112;5.144;2023-02-03T16:11:37;102776.00;;;9.20
66403;BMP180;53212;52.112;5.144;2023-02-03T16:14:06;102779.60;;;9.20
66403;BMP180;53212;52.112;5.144;2023-02-03T16:16:50;102780.20;;;9.14
66403;BMP180;53212;52.112;5.144;2023-02-03T16:19:21;102780.00;;;9.10
66403;BMP180;53212;52.112;5.144;2023-02-03T16:29:53;102796.40;;;8.90
66403;BMP180;53212;52.112;5.144;2023-02-03T16:32:38;102800.40;;;8.90
66403;BMP180;53212;52.112;5.144;2023-02-03T16:35:23;102806.80;;;8.90
66403;BMP180;53212;52.112;5.144;2023-02-03T16:38:15;102819.40;;;8.90
66403;BMP180;53212;52.112;5.144;2023-02-03T16:40:59;102817.00;;;8.84